sensor_id;sensor_type;location;lat;lon;timestamp;temperature;humidity
25732;DHT22;13585;50.864;4.406;2023-11-18T00:01:54;19.70;62.40
25732;DHT22;13585;50.864;4.406;2023-11-18T00:04:19;19.70;62.30
25732;DHT22;13585;50.864;4.406;2023-11-18T00:06:45;19.70;62.30
25732;DHT22;13585;50.864;4.406;2023-11-18T00:09:12;19.70;62.20
25732;DHT22;13585;50.864;4.406;2023-11-18T00:11:41;19.70;62.20
25732;DHT22;13585;50.864;4.406;2023-11-18T00:14:07;19.70;62.20
25732;DHT22;13585;50.864;4.406;2023-11-18T00:16:33;19.70;62.10
25732;DHT22;13585;50.864;4.406;2023-11-18T00:19:00;19.70;62.10
25732;DHT22;13585;50.864;4.406;2023-11-18T00:21:27;19.70;62.00
25732;DHT22;13585;50.864;4.406;2023-11-18T00:23:53;19.70;62.00
25732;DHT22;13585;50.864;4.406;2023-11-18T00:26:18;19.70;61.90
25732;DHT22;13585;50.864;4.406;2023-11-18T00:28:44;19.70;61.90
25732;DHT22;13585;50.864;4.406;2023-11-18T00:31:10;19.70;61.90
25732;DHT22;13585;50.864;4.406;2023-11-18T00:33:35;19.70;61.80
25732;DHT22;13585;50.864;4.406;2023-11-18T00:36:01;19.70;61.80
25732;DHT22;13585;50.864;4.406;2023-11-18T00:38:28;19.70;61.70
25732;DHT22;13585;50.864;4.406;2023-11-18T00:40:53;19.70;61.70
25732;DHT22;13585;50.864;4.406;2023-11-18T00:43:19;19.70;61.70
25732;DHT22;13585;50.864;4.406;2023-11-18T00:45:44;19.70;61.60
25732;DHT22;13585;50.864;4.406;2023-11-18T00:48:10;19.70;61.60
25732;DHT22;13585;50.864;4.406;2023-11-18T00:50:35;19.60;61.50
25732;DHT22;13585;50.864;4.406;2023-11-18T00:53:01;19.60;61.50
25732;DHT22;13585;50.864;4.406;2023-11-18T00:55:27;19.70;61.50
25732;DHT22;13585;50.864;4.406;2023-11-18T00:57:52;19.70;61.50
25732;DHT22;13585;50.864;4.406;2023-11-18T01:00:18;19.60;61.40
25732;DHT22;13585;50.864;4.406;2023-11-18T01:02:48;19.60;61.30
25732;DHT22;13585;50.864;4.406;2023-11-18T01:05:15;19.60;61.40
25732;DHT22;13585;50.864;4.406;2023-11-18T01:07:41;19.60;61.30
25732;DHT22;13585;50.864;4.406;2023-11-18T01:10:08;19.60;61.20
25732;DHT22;13585;50.864;4.406;2023-11-18T01:12:35;19.60;61.20
25732;DHT22;13585;50.864;4.406;2023-11-18T01:15:01;19.60;61.10
25732;DHT22;13585;50.864;4.406;2023-11-18T01:17:28;19.60;61.10
25732;DHT22;13585;50.864;4.406;2023-11-18T01:19:54;19.60;61.10
25732;DHT22;13585;50.864;4.406;2023-11-18T01:22:20;19.70;61.10
25732;DHT22;13585;50.864;4.406;2023-11-18T01:24:47;19.60;61.00
25732;DHT22;13585;50.864;4.406;2023-11-18T01:27:13;19.60;61.00
25732;DHT22;13585;50.864;4.406;2023-11-18T01:29:39;19.60;60.90
25732;DHT22;13585;50.864;4.406;2023-11-18T01:32:06;19.60;60.90
25732;DHT22;13585;50.864;4.406;2023-11-18T01:34:35;19.60;60.90
25732;DHT22;13585;50.864;4.406;2023-11-18T01:37:01;19.60;60.90
25732;DHT22;13585;50.864;4.406;2023-11-18T01:39:27;19.60;60.80
25732;DHT22;13585;50.864;4.406;2023-11-18T01:41:55;19.60;60.80
25732;DHT22;13585;50.864;4.406;2023-11-18T01:44:20;19.60;60.70
25732;DHT22;13585;50.864;4.406;2023-11-18T01:46:49;19.60;60.70
25732;DHT22;13585;50.864;4.406;2023-11-18T01:49:15;19.60;60.70
25732;DHT22;13585;50.864;4.406;2023-11-18T01:51:42;19.60;60.70
25732;DHT22;13585;50.864;4.406;2023-11-18T01:54:09;19.60;60.60
25732;DHT22;13585;50.864;4.406;2023-11-18T01:56:43;19.60;60.60
25732;DHT22;13585;50.864;4.406;2023-11-18T01:59:11;19.60;60.60
25732;DHT22;13585;50.864;4.406;2023-11-18T02:04:13;19.60;60.50
25732;DHT22;13585;50.864;4.406;2023-11-18T02:06:39;19.50;60.40
25732;DHT22;13585;50.864;4.406;2023-11-18T02:09:05;19.50;60.40
25732;DHT22;13585;50.864;4.406;2023-11-18T02:11:37;19.50;60.40
25732;DHT22;13585;50.864;4.406;2023-11-18T02:14:08;19.60;60.40
25732;DHT22;13585;50.864;4.406;2023-11-18T02:16:38;19.60;60.40
25732;DHT22;13585;50.864;4.406;2023-11-18T02:19:21;19.50;60.30
25732;DHT22;13585;50.864;4.406;2023-11-18T02:21:48;19.50;60.30
25732;DHT22;13585;50.864;4.406;2023-11-18T02:24:28;19.50;60.20
25732;DHT22;13585;50.864;4.406;2023-11-18T02:26:57;19.50;60.30
25732;DHT22;13585;50.864;4.406;2023-11-18T02:29:23;19.50;60.20
25732;DHT22;13585;50.864;4.406;2023-11-18T02:31:52;19.50;60.20
25732;DHT22;13585;50.864;4.406;2023-11-18T02:34:23;19.50;60.20
25732;DHT22;13585;50.864;4.406;2023-11-18T02:36:52;19.50;60.10
25732;DHT22;13585;50.864;4.406;2023-11-18T02:39:27;19.50;60.10
25732;DHT22;13585;50.864;4.406;2023-11-18T02:41:55;19.50;60.10
25732;DHT22;13585;50.864;4.406;2023-11-18T02:44:24;19.50;60.00
25732;DHT22;13585;50.864;4.406;2023-11-18T02:46:51;19.50;60.00
25732;DHT22;13585;50.864;4.406;2023-11-18T02:49:16;19.50;60.00
25732;DHT22;13585;50.864;4.406;2023-11-18T02:51:43;19.50;60.00
25732;DHT22;13585;50.864;4.406;2023-11-18T02:54:13;19.50;60.00
25732;DHT22;13585;50.864;4.406;2023-11-18T02:56:39;19.50;60.00
25732;DHT22;13585;50.864;4.406;2023-11-18T02:59:04;19.50;59.90
25732;DHT22;13585;50.864;4.406;2023-11-18T03:01:33;19.50;59.90
25732;DHT22;13585;50.864;4.406;2023-11-18T03:04:00;19.50;59.90
25732;DHT22;13585;50.864;4.406;2023-11-18T03:06:26;19.50;59.90
25732;DHT22;13585;50.864;4.406;2023-11-18T03:08:52;19.50;59.80
25732;DHT22;13585;50.864;4.406;2023-11-18T03:11:21;19.40;59.80
25732;DHT22;13585;50.864;4.406;2023-11-18T03:13:46;19.50;59.80
25732;DHT22;13585;50.864;4.406;2023-11-18T03:16:12;19.50;59.80
25732;DHT22;13585;50.864;4.406;2023-11-18T03:18:41;19.50;59.80
25732;DHT22;13585;50.864;4.406;2023-11-18T03:21:13;19.40;59.70
25732;DHT22;13585;50.864;4.406;2023-11-18T03:23:39;19.40;59.80
25732;DHT22;13585;50.864;4.406;2023-11-18T03:26:09;19.50;59.70
25732;DHT22;13585;50.864;4.406;2023-11-18T03:28:36;19.50;59.50
25732;DHT22;13585;50.864;4.406;2023-11-18T03:31:03;19.50;59.60
25732;DHT22;13585;50.864;4.406;2023-11-18T03:33:29;19.40;59.60
25732;DHT22;13585;50.864;4.406;2023-11-18T03:35:55;19.40;59.60
25732;DHT22;13585;50.864;4.406;2023-11-18T03:38:22;19.50;59.70
25732;DHT22;13585;50.864;4.406;2023-11-18T03:40:49;19.50;59.70
25732;DHT22;13585;50.864;4.406;2023-11-18T03:43:15;19.40;59.60
25732;DHT22;13585;50.864;4.406;2023-11-18T03:45:41;19.50;59.60
25732;DHT22;13585;50.864;4.406;2023-11-18T03:48:07;19.30;59.50
25732;DHT22;13585;50.864;4.406;2023-11-18T03:50:35;19.40;59.60
25732;DHT22;13585;50.864;4.406;2023-11-18T03:53:01;19.40;59.50
25732;DHT22;13585;50.864;4.406;2023-11-18T03:55:28;19.40;59.50
25732;DHT22;13585;50.864;4.406;2023-11-18T03:57:55;19.40;59.50
25732;DHT22;13585;50.864;4.406;2023-11-18T04:00:21;19.40;59.50
25732;DHT22;13585;50.864;4.406;2023-11-18T04:02:47;19.40;59.50
25732;DHT22;13585;50.864;4.406;2023-11-18T04:05:13;19.40;59.50
25732;DHT22;13585;50.864;4.406;2023-11-18T04:07:39;19.40;59.40
25732;DHT22;13585;50.864;4.406;2023-11-18T04:10:08;19.40;59.40
25732;DHT22;13585;50.864;4.406;2023-11-18T04:12:38;19.40;59.40
25732;DHT22;13585;50.864;4.406;2023-11-18T04:15:05;19.40;59.30
25732;DHT22;13585;50.864;4.406;2023-11-18T04:17:31;19.40;59.30
25732;DHT22;13585;50.864;4.406;2023-11-18T04:19:57;19.40;59.40
25732;DHT22;13585;50.864;4.406;2023-11-18T04:22:23;19.40;59.40
25732;DHT22;13585;50.864;4.406;2023-11-18T04:24:49;19.40;59.30
25732;DHT22;13585;50.864;4.406;2023-11-18T04:27:15;19.40;59.30
25732;DHT22;13585;50.864;4.406;2023-11-18T04:29:41;19.40;59.30
25732;DHT22;13585;50.864;4.406;2023-11-18T04:32:07;19.40;59.30
25732;DHT22;13585;50.864;4.406;2023-11-18T04:34:36;19.40;59.30
25732;DHT22;13585;50.864;4.406;2023-11-18T04:37:03;19.40;59.30
25732;DHT22;13585;50.864;4.406;2023-11-18T04:39:31;19.40;59.20
25732;DHT22;13585;50.864;4.406;2023-11-18T04:41:57;19.40;59.30
25732;DHT22;13585;50.864;4.406;2023-11-18T04:44:23;19.40;59.20
25732;DHT22;13585;50.864;4.406;2023-11-18T04:46:48;19.40;59.20
25732;DHT22;13585;50.864;4.406;2023-11-18T04:49:15;19.40;59.20
25732;DHT22;13585;50.864;4.406;2023-11-18T04:51:40;19.40;59.20
25732;DHT22;13585;50.864;4.406;2023-11-18T04:54:06;19.40;59.20
25732;DHT22;13585;50.864;4.406;2023-11-18T04:56:34;19.40;59.20
25732;DHT22;13585;50.864;4.406;2023-11-18T04:59:02;19.40;59.20
25732;DHT22;13585;50.864;4.406;2023-11-18T05:01:27;19.40;59.10
25732;DHT22;13585;50.864;4.406;2023-11-18T05:03:53;19.40;59.20
25732;DHT22;13585;50.864;4.406;2023-11-18T05:06:19;19.30;59.10
25732;DHT22;13585;50.864;4.406;2023-11-18T05:08:45;19.40;59.10
25732;DHT22;13585;50.864;4.406;2023-11-18T05:11:11;19.40;59.10
25732;DHT22;13585;50.864;4.406;2023-11-18T05:13:38;19.40;59.10
25732;DHT22;13585;50.864;4.406;2023-11-18T05:16:06;19.40;59.00
25732;DHT22;13585;50.864;4.406;2023-11-18T05:18:32;19.40;59.70
25732;DHT22;13585;50.864;4.406;2023-11-18T05:21:02;19.40;59.00
25732;DHT22;13585;50.864;4.406;2023-11-18T05:23:30;19.40;58.90
25732;DHT22;13585;50.864;4.406;2023-11-18T05:25:55;19.30;58.90
25732;DHT22;13585;50.864;4.406;2023-11-18T05:28:22;19.30;58.90
25732;DHT22;13585;50.864;4.406;2023-11-18T05:30:47;19.30;58.80
25732;DHT22;13585;50.864;4.406;2023-11-18T05:33:13;19.30;58.80
25732;DHT22;13585;50.864;4.406;2023-11-18T05:38:27;19.30;58.70
25732;DHT22;13585;50.864;4.406;2023-11-18T05:40:57;19.30;58.70
25732;DHT22;13585;50.864;4.406;2023-11-18T05:43:26;19.30;58.70
25732;DHT22;13585;50.864;4.406;2023-11-18T05:45:57;19.30;58.70
25732;DHT22;13585;50.864;4.406;2023-11-18T05:48:44;19.30;58.70
25732;DHT22;13585;50.864;4.406;2023-11-18T05:51:11;19.30;58.70
25732;DHT22;13585;50.864;4.406;2023-11-18T05:53:40;19.30;58.80
25732;DHT22;13585;50.864;4.406;2023-11-18T05:56:07;19.30;58.70
25732;DHT22;13585;50.864;4.406;2023-11-18T05:58:33;19.20;58.70
25732;DHT22;13585;50.864;4.406;2023-11-18T06:00:59;19.30;58.70
25732;DHT22;13585;50.864;4.406;2023-11-18T06:03:25;19.30;58.70
25732;DHT22;13585;50.864;4.406;2023-11-18T06:05:51;19.30;58.70
25732;DHT22;13585;50.864;4.406;2023-11-18T06:08:17;19.30;58.70
25732;DHT22;13585;50.864;4.406;2023-11-18T06:10:43;19.30;58.70
25732;DHT22;13585;50.864;4.406;2023-11-18T06:13:10;19.30;58.70
25732;DHT22;13585;50.864;4.406;2023-11-18T06:15:38;19.30;58.70
25732;DHT22;13585;50.864;4.406;2023-11-18T06:18:04;19.30;58.70
25732;DHT22;13585;50.864;4.406;2023-11-18T06:20:30;19.30;58.70
25732;DHT22;13585;50.864;4.406;2023-11-18T06:22:58;19.30;58.60
25732;DHT22;13585;50.864;4.406;2023-11-18T06:25:24;19.30;58.70
25732;DHT22;13585;50.864;4.406;2023-11-18T06:27:51;19.30;58.70
25732;DHT22;13585;50.864;4.406;2023-11-18T06:30:18;19.30;58.70
25732;DHT22;13585;50.864;4.406;2023-11-18T06:32:45;19.30;58.70
25732;DHT22;13585;50.864;4.406;2023-11-18T06:35:12;19.30;58.60
25732;DHT22;13585;50.864;4.406;2023-11-18T06:37:40;19.30;58.70
25732;DHT22;13585;50.864;4.406;2023-11-18T06:40:06;19.30;58.70
25732;DHT22;13585;50.864;4.406;2023-11-18T06:42:42;19.30;58.70
25732;DHT22;13585;50.864;4.406;2023-11-18T06:45:08;19.30;58.70
25732;DHT22;13585;50.864;4.406;2023-11-18T06:47:35;19.30;58.70
25732;DHT22;13585;50.864;4.406;2023-11-18T06:50:04;19.30;58.70
25732;DHT22;13585;50.864;4.406;2023-11-18T06:52:30;19.30;58.70
25732;DHT22;13585;50.864;4.406;2023-11-18T06:54:57;19.30;58.70
25732;DHT22;13585;50.864;4.406;2023-11-18T06:57:23;19.30;58.70
25732;DHT22;13585;50.864;4.406;2023-11-18T06:59:49;19.30;58.70
25732;DHT22;13585;50.864;4.406;2023-11-18T07:02:14;19.30;58.70
25732;DHT22;13585;50.864;4.406;2023-11-18T07:04:40;19.30;58.70
25732;DHT22;13585;50.864;4.406;2023-11-18T07:07:06;19.40;58.70
25732;DHT22;13585;50.864;4.406;2023-11-18T07:09:34;19.40;58.70
25732;DHT22;13585;50.864;4.406;2023-11-18T07:12:02;19.30;58.60
25732;DHT22;13585;50.864;4.406;2023-11-18T07:14:29;19.30;58.70
25732;DHT22;13585;50.864;4.406;2023-11-18T07:16:55;19.40;58.70
25732;DHT22;13585;50.864;4.406;2023-11-18T07:19:20;19.30;58.70
25732;DHT22;13585;50.864;4.406;2023-11-18T07:21:47;19.40;58.70
25732;DHT22;13585;50.864;4.406;2023-11-18T07:24:12;19.40;58.70
25732;DHT22;13585;50.864;4.406;2023-11-18T07:26:38;19.40;58.70
25732;DHT22;13585;50.864;4.406;2023-11-18T07:29:04;19.40;58.70
25732;DHT22;13585;50.864;4.406;2023-11-18T07:31:33;19.40;58.60
25732;DHT22;13585;50.864;4.406;2023-11-18T07:33:58;19.40;58.60
25732;DHT22;13585;50.864;4.406;2023-11-18T07:36:24;19.40;58.60
25732;DHT22;13585;50.864;4.406;2023-11-18T07:38:51;19.40;58.60
25732;DHT22;13585;50.864;4.406;2023-11-18T07:41:17;19.40;58.50
25732;DHT22;13585;50.864;4.406;2023-11-18T07:43:53;19.40;58.50
25732;DHT22;13585;50.864;4.406;2023-11-18T07:46:21;19.40;58.50
25732;DHT22;13585;50.864;4.406;2023-11-18T07:48:51;19.40;58.50
25732;DHT22;13585;50.864;4.406;2023-11-18T07:51:20;19.40;58.50
25732;DHT22;13585;50.864;4.406;2023-11-18T07:53:49;19.40;58.50
25732;DHT22;13585;50.864;4.406;2023-11-18T07:56:15;19.40;58.50
25732;DHT22;13585;50.864;4.406;2023-11-18T07:58:44;19.40;58.50
25732;DHT22;13585;50.864;4.406;2023-11-18T08:01:11;19.40;58.50
25732;DHT22;13585;50.864;4.406;2023-11-18T08:03:37;19.40;58.50
25732;DHT22;13585;50.864;4.406;2023-11-18T08:06:04;19.40;58.50
25732;DHT22;13585;50.864;4.406;2023-11-18T08:08:32;19.40;58.50
25732;DHT22;13585;50.864;4.406;2023-11-18T08:10:58;19.40;58.50
25732;DHT22;13585;50.864;4.406;2023-11-18T08:13:23;19.50;59.10
25732;DHT22;13585;50.864;4.406;2023-11-18T08:15:49;19.40;58.40
25732;DHT22;13585;50.864;4.406;2023-11-18T08:18:14;19.40;58.40
25732;DHT22;13585;50.864;4.406;2023-11-18T08:20:41;19.40;58.40
25732;DHT22;13585;50.864;4.406;2023-11-18T08:23:07;19.50;58.50
25732;DHT22;13585;50.864;4.406;2023-11-18T08:25:33;19.40;58.40
25732;DHT22;13585;50.864;4.406;2023-11-18T08:28:00;19.40;58.40
25732;DHT22;13585;50.864;4.406;2023-11-18T08:30:29;19.40;58.40
25732;DHT22;13585;50.864;4.406;2023-11-18T08:32:55;19.40;58.40
25732;DHT22;13585;50.864;4.406;2023-11-18T08:35:21;19.40;58.40
25732;DHT22;13585;50.864;4.406;2023-11-18T08:37:47;19.40;58.40
25732;DHT22;13585;50.864;4.406;2023-11-18T08:40:13;19.40;58.30
25732;DHT22;13585;50.864;4.406;2023-11-18T08:42:51;19.40;58.40
25732;DHT22;13585;50.864;4.406;2023-11-18T08:45:22;19.40;58.40
25732;DHT22;13585;50.864;4.406;2023-11-18T08:47:52;19.50;58.40
25732;DHT22;13585;50.864;4.406;2023-11-18T08:50:18;19.40;58.30
25732;DHT22;13585;50.864;4.406;2023-11-18T08:52:45;19.40;58.40
25732;DHT22;13585;50.864;4.406;2023-11-18T08:55:15;19.40;58.60
25732;DHT22;13585;50.864;4.406;2023-11-18T08:57:47;19.40;58.70
25732;DHT22;13585;50.864;4.406;2023-11-18T09:00:30;19.40;58.70
25732;DHT22;13585;50.864;4.406;2023-11-18T09:03:13;19.40;58.80
25732;DHT22;13585;50.864;4.406;2023-11-18T09:06:01;19.40;58.80
25732;DHT22;13585;50.864;4.406;2023-11-18T09:11:03;19.40;58.90
25732;DHT22;13585;50.864;4.406;2023-11-18T09:13:31;19.40;58.90
25732;DHT22;13585;50.864;4.406;2023-11-18T09:16:01;19.40;59.00
25732;DHT22;13585;50.864;4.406;2023-11-18T09:18:28;19.40;59.00
25732;DHT22;13585;50.864;4.406;2023-11-18T09:20:56;19.40;59.00
25732;DHT22;13585;50.864;4.406;2023-11-18T09:23:25;19.40;59.00
25732;DHT22;13585;50.864;4.406;2023-11-18T09:25:51;19.40;59.00
25732;DHT22;13585;50.864;4.406;2023-11-18T09:28:23;19.40;59.00
25732;DHT22;13585;50.864;4.406;2023-11-18T09:30:50;19.40;59.10
25732;DHT22;13585;50.864;4.406;2023-11-18T09:33:20;19.50;59.10
25732;DHT22;13585;50.864;4.406;2023-11-18T09:36:01;19.40;59.00
25732;DHT22;13585;50.864;4.406;2023-11-18T09:38:31;19.40;59.00
25732;DHT22;13585;50.864;4.406;2023-11-18T09:41:00;19.40;59.10
25732;DHT22;13585;50.864;4.406;2023-11-18T09:43:29;19.40;59.10
25732;DHT22;13585;50.864;4.406;2023-11-18T09:46:05;19.40;59.10
25732;DHT22;13585;50.864;4.406;2023-11-18T09:51:08;19.40;59.20
25732;DHT22;13585;50.864;4.406;2023-11-18T09:53:37;19.40;59.20
25732;DHT22;13585;50.864;4.406;2023-11-18T09:56:07;19.40;59.20
25732;DHT22;13585;50.864;4.406;2023-11-18T09:58:48;19.40;59.20
25732;DHT22;13585;50.864;4.406;2023-11-18T10:01:21;19.40;59.50
25732;DHT22;13585;50.864;4.406;2023-11-18T10:03:50;19.40;59.80
25732;DHT22;13585;50.864;4.406;2023-11-18T10:06:17;19.40;59.20
25732;DHT22;13585;50.864;4.406;2023-11-18T10:08:43;19.40;59.20
25732;DHT22;13585;50.864;4.406;2023-11-18T10:11:12;19.40;59.30
25732;DHT22;13585;50.864;4.406;2023-11-18T10:13:39;19.40;59.30
25732;DHT22;13585;50.864;4.406;2023-11-18T10:16:09;19.40;59.30
25732;DHT22;13585;50.864;4.406;2023-11-18T10:18:34;19.40;59.30
25732;DHT22;13585;50.864;4.406;2023-11-18T10:21:02;19.40;59.30
25732;DHT22;13585;50.864;4.406;2023-11-18T10:23:29;19.40;59.30
25732;DHT22;13585;50.864;4.406;2023-11-18T10:25:59;19.40;59.30
25732;DHT22;13585;50.864;4.406;2023-11-18T10:28:34;19.40;59.30
25732;DHT22;13585;50.864;4.406;2023-11-18T10:31:04;19.40;59.30
25732;DHT22;13585;50.864;4.406;2023-11-18T10:33:37;19.40;59.30
25732;DHT22;13585;50.864;4.406;2023-11-18T10:36:04;19.40;59.30
25732;DHT22;13585;50.864;4.406;2023-11-18T10:38:38;19.40;59.20
25732;DHT22;13585;50.864;4.406;2023-11-18T10:41:08;19.40;59.20
25732;DHT22;13585;50.864;4.406;2023-11-18T10:43:35;19.40;59.20
25732;DHT22;13585;50.864;4.406;2023-11-18T10:46:05;19.40;59.20
25732;DHT22;13585;50.864;4.406;2023-11-18T10:48:44;19.40;59.20
25732;DHT22;13585;50.864;4.406;2023-11-18T10:51:11;19.40;59.20
25732;DHT22;13585;50.864;4.406;2023-11-18T10:53:38;19.40;59.20
25732;DHT22;13585;50.864;4.406;2023-11-18T10:56:16;19.40;59.20
25732;DHT22;13585;50.864;4.406;2023-11-18T10:58:42;19.40;59.20
25732;DHT22;13585;50.864;4.406;2023-11-18T11:01:16;19.40;59.20
25732;DHT22;13585;50.864;4.406;2023-11-18T11:03:55;19.40;59.20
25732;DHT22;13585;50.864;4.406;2023-11-18T11:06:24;19.40;59.20
25732;DHT22;13585;50.864;4.406;2023-11-18T11:08:53;19.40;59.20
25732;DHT22;13585;50.864;4.406;2023-11-18T11:11:22;19.30;59.10
25732;DHT22;13585;50.864;4.406;2023-11-18T11:13:54;19.30;59.20
25732;DHT22;13585;50.864;4.406;2023-11-18T11:16:27;19.40;59.10
25732;DHT22;13585;50.864;4.406;2023-11-18T11:18:55;19.40;59.00
25732;DHT22;13585;50.864;4.406;2023-11-18T11:21:26;19.40;59.10
25732;DHT22;13585;50.864;4.406;2023-11-18T11:24:00;19.30;59.10
25732;DHT22;13585;50.864;4.406;2023-11-18T11:29:25;19.40;59.30
25732;DHT22;13585;50.864;4.406;2023-11-18T11:35:07;19.30;59.30
25732;DHT22;13585;50.864;4.406;2023-11-18T11:37:34;19.30;59.20
25732;DHT22;13585;50.864;4.406;2023-11-18T11:40:02;19.30;59.30
25732;DHT22;13585;50.864;4.406;2023-11-18T11:45:58;19.20;59.50
25732;DHT22;13585;50.864;4.406;2023-11-18T11:48:27;19.30;59.50
25732;DHT22;13585;50.864;4.406;2023-11-18T11:51:23;19.30;59.70
25732;DHT22;13585;50.864;4.406;2023-11-18T11:54:27;19.30;59.80
25732;DHT22;13585;50.864;4.406;2023-11-18T11:56:56;19.30;59.80
25732;DHT22;13585;50.864;4.406;2023-11-18T12:02:25;19.30;59.90
25732;DHT22;13585;50.864;4.406;2023-11-18T12:04:56;19.30;59.90
25732;DHT22;13585;50.864;4.406;2023-11-18T12:07:25;19.30;60.00
25732;DHT22;13585;50.864;4.406;2023-11-18T12:09:56;19.30;60.00
25732;DHT22;13585;50.864;4.406;2023-11-18T12:12:24;19.30;60.00
25732;DHT22;13585;50.864;4.406;2023-11-18T12:14:54;19.30;60.10
25732;DHT22;13585;50.864;4.406;2023-11-18T12:17:23;19.30;60.30
25732;DHT22;13585;50.864;4.406;2023-11-18T12:19:53;19.30;60.30
25732;DHT22;13585;50.864;4.406;2023-11-18T12:22:24;19.40;60.40
25732;DHT22;13585;50.864;4.406;2023-11-18T12:27:44;19.30;60.70
25732;DHT22;13585;50.864;4.406;2023-11-18T12:33:00;19.40;60.70
25732;DHT22;13585;50.864;4.406;2023-11-18T12:41:43;19.30;60.80
25732;DHT22;13585;50.864;4.406;2023-11-18T12:46:51;19.30;61.00
25732;DHT22;13585;50.864;4.406;2023-11-18T12:49:22;19.30;61.00
25732;DHT22;13585;50.864;4.406;2023-11-18T12:51:53;19.30;61.10
25732;DHT22;13585;50.864;4.406;2023-11-18T12:54:21;19.30;61.20
25732;DHT22;13585;50.864;4.406;2023-11-18T12:56:47;19.30;61.20
25732;DHT22;13585;50.864;4.406;2023-11-18T12:59:19;19.30;61.30
25732;DHT22;13585;50.864;4.406;2023-11-18T13:01:49;19.30;61.30
25732;DHT22;13585;50.864;4.406;2023-11-18T13:04:32;19.30;61.50
25732;DHT22;13585;50.864;4.406;2023-11-18T13:06:59;19.40;61.50
25732;DHT22;13585;50.864;4.406;2023-11-18T13:09:26;19.30;61.50
25732;DHT22;13585;50.864;4.406;2023-11-18T13:11:57;19.40;61.70
25732;DHT22;13585;50.864;4.406;2023-11-18T13:14:27;19.30;61.70
25732;DHT22;13585;50.864;4.406;2023-11-18T13:16:54;19.30;61.70
25732;DHT22;13585;50.864;4.406;2023-11-18T13:19:28;19.40;61.80
25732;DHT22;13585;50.864;4.406;2023-11-18T13:22:01;19.30;61.80
25732;DHT22;13585;50.864;4.406;2023-11-18T13:24:29;19.30;61.70
25732;DHT22;13585;50.864;4.406;2023-11-18T13:26:57;19.30;61.70
25732;DHT22;13585;50.864;4.406;2023-11-18T13:29:23;19.30;61.80
25732;DHT22;13585;50.864;4.406;2023-11-18T13:31:50;19.30;61.90
25732;DHT22;13585;50.864;4.406;2023-11-18T13:34:20;19.30;61.70
25732;DHT22;13585;50.864;4.406;2023-11-18T13:36:49;19.30;61.80
25732;DHT22;13585;50.864;4.406;2023-11-18T13:39:20;19.30;61.80
25732;DHT22;13585;50.864;4.406;2023-11-18T13:41:49;19.30;61.90
25732;DHT22;13585;50.864;4.406;2023-11-18T13:44:36;19.30;61.90
25732;DHT22;13585;50.864;4.406;2023-11-18T13:47:06;19.30;61.90
25732;DHT22;13585;50.864;4.406;2023-11-18T13:49:38;19.30;61.80
25732;DHT22;13585;50.864;4.406;2023-11-18T13:52:07;19.30;61.90
25732;DHT22;13585;50.864;4.406;2023-11-18T13:54:39;19.30;61.80
25732;DHT22;13585;50.864;4.406;2023-11-18T13:57:05;19.30;61.90
25732;DHT22;13585;50.864;4.406;2023-11-18T13:59:32;19.30;61.90
25732;DHT22;13585;50.864;4.406;2023-11-18T14:01:59;19.30;61.90
25732;DHT22;13585;50.864;4.406;2023-11-18T14:04:32;19.30;62.00
25732;DHT22;13585;50.864;4.406;2023-11-18T14:07:01;19.30;62.00
25732;DHT22;13585;50.864;4.406;2023-11-18T14:09:33;19.20;62.00
25732;DHT22;13585;50.864;4.406;2023-11-18T14:12:06;19.30;62.00
25732;DHT22;13585;50.864;4.406;2023-11-18T14:14:32;19.30;62.00
25732;DHT22;13585;50.864;4.406;2023-11-18T14:16:58;19.30;62.00
25732;DHT22;13585;50.864;4.406;2023-11-18T14:19:24;19.30;62.10
25732;DHT22;13585;50.864;4.406;2023-11-18T14:21:51;19.30;62.10
25732;DHT22;13585;50.864;4.406;2023-11-18T14:24:17;19.30;62.10
25732;DHT22;13585;50.864;4.406;2023-11-18T14:26:43;19.30;62.00
25732;DHT22;13585;50.864;4.406;2023-11-18T14:29:09;19.30;62.00
25732;DHT22;13585;50.864;4.406;2023-11-18T14:31:37;19.30;62.00
25732;DHT22;13585;50.864;4.406;2023-11-18T14:34:03;19.30;61.90
25732;DHT22;13585;50.864;4.406;2023-11-18T14:36:29;19.30;62.00
25732;DHT22;13585;50.864;4.406;2023-11-18T14:38:55;19.30;62.00
25732;DHT22;13585;50.864;4.406;2023-11-18T14:41:21;19.30;61.90
25732;DHT22;13585;50.864;4.406;2023-11-18T14:43:51;19.30;61.90
25732;DHT22;13585;50.864;4.406;2023-11-18T14:46:17;19.30;62.00
25732;DHT22;13585;50.864;4.406;2023-11-18T14:48:44;19.30;62.00
25732;DHT22;13585;50.864;4.406;2023-11-18T14:51:09;19.30;62.00
25732;DHT22;13585;50.864;4.406;2023-11-18T14:53:36;19.30;62.00
25732;DHT22;13585;50.864;4.406;2023-11-18T14:56:01;19.30;62.00
25732;DHT22;13585;50.864;4.406;2023-11-18T14:58:30;19.30;62.00
25732;DHT22;13585;50.864;4.406;2023-11-18T15:00:55;19.30;62.00
25732;DHT22;13585;50.864;4.406;2023-11-18T15:03:22;19.30;62.00
25732;DHT22;13585;50.864;4.406;2023-11-18T15:05:48;19.30;62.00
25732;DHT22;13585;50.864;4.406;2023-11-18T15:08:13;19.30;62.00
25732;DHT22;13585;50.864;4.406;2023-11-18T15:10:41;19.30;62.00
25732;DHT22;13585;50.864;4.406;2023-11-18T15:13:12;19.30;62.00
25732;DHT22;13585;50.864;4.406;2023-11-18T15:15:41;19.30;62.00
25732;DHT22;13585;50.864;4.406;2023-11-18T15:18:07;19.30;62.00
25732;DHT22;13585;50.864;4.406;2023-11-18T15:20:42;19.30;62.10
25732;DHT22;13585;50.864;4.406;2023-11-18T15:23:12;19.30;62.20
25732;DHT22;13585;50.864;4.406;2023-11-18T15:25:38;19.30;62.20
25732;DHT22;13585;50.864;4.406;2023-11-18T15:28:05;19.30;63.10
25732;DHT22;13585;50.864;4.406;2023-11-18T15:30:37;19.30;62.40
25732;DHT22;13585;50.864;4.406;2023-11-18T15:33:03;19.20;62.40
25732;DHT22;13585;50.864;4.406;2023-11-18T15:35:30;19.20;62.50
25732;DHT22;13585;50.864;4.406;2023-11-18T15:37:56;19.20;62.60
25732;DHT22;13585;50.864;4.406;2023-11-18T15:40:22;19.30;62.70
25732;DHT22;13585;50.864;4.406;2023-11-18T15:42:51;19.20;62.80
25732;DHT22;13585;50.864;4.406;2023-11-18T15:47:43;19.20;62.90
25732;DHT22;13585;50.864;4.406;2023-11-18T15:50:10;19.30;63.10
25732;DHT22;13585;50.864;4.406;2023-11-18T15:52:45;19.20;63.10
25732;DHT22;13585;50.864;4.406;2023-11-18T15:55:11;19.20;63.10
25732;DHT22;13585;50.864;4.406;2023-11-18T15:57:41;19.20;63.10
25732;DHT22;13585;50.864;4.406;2023-11-18T16:00:08;19.20;63.30
25732;DHT22;13585;50.864;4.406;2023-11-18T16:02:46;19.20;63.50
25732;DHT22;13585;50.864;4.406;2023-11-18T16:05:18;19.20;63.50
25732;DHT22;13585;50.864;4.406;2023-11-18T16:07:54;19.30;63.80
25732;DHT22;13585;50.864;4.406;2023-11-18T16:10:21;19.30;64.00
25732;DHT22;13585;50.864;4.406;2023-11-18T16:12:54;19.30;63.90
25732;DHT22;13585;50.864;4.406;2023-11-18T16:15:21;19.20;64.00
25732;DHT22;13585;50.864;4.406;2023-11-18T16:17:48;19.30;64.10